Portada
METAR-TAF:

METAR-TAF

Aeroports :

Bangkok, Tailàndia

latitud: 13-54-45N, longitud: 100-36-24E, altitud: 4 m

Observació

L'informe es va fer fa 31 minuts, a les 11:30 UTC
Vent 3 kt del Oest, variant entre Sud-Oest i Oest/Nord-Oest
Temperatura 31°C
Humitat 55%
Pressió 1009 hPa
Visibilitat: 8000 m
Escasses núvols a una alçada de 2000 ft

METAR: VTBD 271130Z 26003KT 230V290 8000 FEW020 31/21 Q1009 NOSIG

Hora: 19:01 (12:01 UTC)

Pronòstic

L'informe es va fer fa 1 hora i 1 minuts, a les 11:00 UTC
Pronòstic vàlid del 27 a les 12 UTC al 28 a les 18 UTC
Vent 8 kt del Oest
Visibilitat: 8000 m
Escasses núvols a una alçada de 2000 ft
Núvols disperses a una alçada de 10000 ft
Evolucionant progressivament
l' 27 a les 16 UTC al 27 a les 18 UTC
Vent 8 kt del Sud/Sud-Oest
Visibilitat 10 km o més
Escasses núvols a una alçada de 2000 ft

TAF: VTBD 271100Z 2712/2818 28008KT 8000 FEW020 SCT100 BECMG 2716/2718 21008KT 9999 FEW020

Observacions i pronòstics meteorològics de més de 4000 aeroports (METAR i TAF).

Les estacions disponibles són els punts grocs i vermells al mapa.

Posi el ratolí al punt desitjat per veure el nom de l'estació.

Feu clic per veure les observacions i els pronòstics meteorològics.

Per canviar el mapa: feu clic els botons verds amb una creu de color negre per apropar; al botó verd amb un guió per allunyar la imatge; o en les fletxes verdes per a mapes adjacents.


METAR-TAF: